createdAt,value
2022-08-03T00:01:29.623Z,5.53
2022-08-03T00:03:33.417Z,5.90
2022-08-03T00:05:38.737Z,4.73
2022-08-03T00:07:42.425Z,5.23
2022-08-03T00:09:46.047Z,4.60
2022-08-03T00:11:50.893Z,4.50
2022-08-03T00:13:55.125Z,5.40
2022-08-03T00:15:59.463Z,4.97
2022-08-03T00:18:03.309Z,4.60
2022-08-03T00:20:08.003Z,4.67
2022-08-03T00:22:13.952Z,5.30
2022-08-03T00:24:18.303Z,4.97
2022-08-03T00:26:22.430Z,4.33
2022-08-03T00:28:29.376Z,5.20
2022-08-03T00:30:33.091Z,5.13
2022-08-03T00:32:36.909Z,4.90
2022-08-03T00:34:58.666Z,4.17
2022-08-03T00:37:03.321Z,4.20
2022-08-03T00:39:08.679Z,4.73
2022-08-03T00:41:12.747Z,4.70
2022-08-03T00:43:19.977Z,4.40
2022-08-03T00:45:24.525Z,4.37
2022-08-03T00:47:28.414Z,3.90
2022-08-03T00:49:32.454Z,4.80
2022-08-03T00:51:36.228Z,4.27
2022-08-03T00:53:40.704Z,4.50
2022-08-03T00:55:46.478Z,4.77
2022-08-03T00:57:50.540Z,4.70
2022-08-03T00:59:54.992Z,4.47
2022-08-03T01:01:58.603Z,4.43
2022-08-03T01:04:02.531Z,4.60
2022-08-03T01:06:09.774Z,4.70
2022-08-03T01:08:17.199Z,4.00
2022-08-03T01:10:28.273Z,4.73
2022-08-03T01:12:40.461Z,5.00
2022-08-03T01:14:46.420Z,3.90
2022-08-03T01:16:57.029Z,4.30
2022-08-03T01:19:04.664Z,4.50
2022-08-03T01:21:12.382Z,4.20
2022-08-03T01:23:29.837Z,4.97
2022-08-03T01:25:39.531Z,4.70
2022-08-03T01:27:54.291Z,4.50
2022-08-03T01:30:06.696Z,4.57
2022-08-03T01:32:53.365Z,5.37
2022-08-03T01:34:42.289Z,4.80
2022-08-03T01:36:51.063Z,4.50
2022-08-03T01:38:56.562Z,4.80
2022-08-03T01:41:03.729Z,4.30
2022-08-03T01:43:08.695Z,4.10
2022-08-03T01:45:13.529Z,4.20
2022-08-03T01:47:20.999Z,4.53
2022-08-03T01:49:26.817Z,4.40
2022-08-03T01:51:56.057Z,5.00
2022-08-03T01:53:55.789Z,5.47
2022-08-03T01:55:59.797Z,4.70
2022-08-03T01:58:06.785Z,4.33
2022-08-03T02:00:11.766Z,5.03
2022-08-03T02:02:33.063Z,4.90
2022-08-03T02:04:40.372Z,4.83
2022-08-03T02:07:02.232Z,5.03
2022-08-03T02:09:07.919Z,5.10
2022-08-03T02:11:12.361Z,5.27
2022-08-03T02:13:19.189Z,5.20
2022-08-03T02:15:24.511Z,5.53
2022-08-03T02:17:39.486Z,4.80
2022-08-03T02:19:45.980Z,5.00
2022-08-03T02:21:56.334Z,4.27
2022-08-03T02:24:04.935Z,5.53
2022-08-03T02:26:11.666Z,5.57
2022-08-03T02:28:18.883Z,5.90
2022-08-03T02:30:23.377Z,4.97
2022-08-03T02:32:31.372Z,5.47
2022-08-03T02:34:36.336Z,5.40
2022-08-03T02:36:42.922Z,6.20
2022-08-03T02:38:49.219Z,5.10
2022-08-03T02:40:54.137Z,5.00
2022-08-03T02:43:01.651Z,5.90
2022-08-03T02:45:07.537Z,4.53
2022-08-03T02:47:17.168Z,4.40
2022-08-03T02:49:41.373Z,5.70
2022-08-03T02:51:47.506Z,5.53
2022-08-03T02:53:55.128Z,5.47
2022-08-03T02:55:59.199Z,5.47
2022-08-03T02:58:03.128Z,4.97
2022-08-03T03:00:07.744Z,5.53
2022-08-03T03:02:11.848Z,5.23
2022-08-03T03:04:16.577Z,5.70
2022-08-03T03:06:21.119Z,4.70
2022-08-03T03:08:29.457Z,6.40
2022-08-03T03:10:33.788Z,5.40
2022-08-03T03:12:38.189Z,5.00
2022-08-03T03:14:44.340Z,6.20
2022-08-03T03:16:51.828Z,6.10
2022-08-03T03:19:04.392Z,6.37
2022-08-03T03:21:09.905Z,5.97
2022-08-03T03:23:14.150Z,6.13
2022-08-03T03:25:19.856Z,5.70
2022-08-03T03:27:23.921Z,6.30
2022-08-03T03:29:29.423Z,6.17
2022-08-03T03:31:33.740Z,6.93
2022-08-03T03:33:37.776Z,6.40
2022-08-03T03:35:44.755Z,6.07
2022-08-03T03:37:48.733Z,6.27
2022-08-03T03:39:52.641Z,5.53
2022-08-03T03:41:58.617Z,5.43
2022-08-03T03:44:02.723Z,7.07
2022-08-03T03:46:07.390Z,7.40
2022-08-03T03:48:11.635Z,6.07
2022-08-03T03:50:17.442Z,6.60
2022-08-03T03:52:27.351Z,5.87
2022-08-03T03:54:41.717Z,5.60
2022-08-03T03:56:46.422Z,7.03
2022-08-03T03:58:51.873Z,7.13
2022-08-03T04:00:55.651Z,6.30
2022-08-03T04:03:00.151Z,6.60
2022-08-03T04:05:21.370Z,7.27
2022-08-03T04:07:43.615Z,6.00
2022-08-03T04:10:14.347Z,7.67
2022-08-03T04:12:21.264Z,7.03
2022-08-03T04:14:27.872Z,7.50
2022-08-03T04:16:34.362Z,6.67
2022-08-03T04:18:39.632Z,6.90
2022-08-03T04:20:45.156Z,7.27
2022-08-03T04:22:52.140Z,7.20
2022-08-03T04:24:59.392Z,6.37
2022-08-03T04:27:05.075Z,6.90
2022-08-03T04:29:09.297Z,8.20
2022-08-03T04:31:15.911Z,6.97
2022-08-03T04:33:20.399Z,6.70
2022-08-03T04:35:59.802Z,6.70
2022-08-03T04:37:53.056Z,7.37
2022-08-03T04:39:59.765Z,7.70
2022-08-03T04:42:08.744Z,8.60
2022-08-03T04:44:22.023Z,7.13
2022-08-03T04:46:34.928Z,8.10
2022-08-03T04:48:42.296Z,8.03
2022-08-03T04:50:48.849Z,7.07
2022-08-03T04:52:52.857Z,7.13
2022-08-03T04:54:57.012Z,8.20
2022-08-03T04:57:01.791Z,7.43
2022-08-03T04:59:05.901Z,7.70
2022-08-03T05:01:11.124Z,6.70
2022-08-03T05:03:25.000Z,5.67
2022-08-03T05:05:29.400Z,7.23
2022-08-03T05:07:57.945Z,6.90
2022-08-03T05:10:15.035Z,5.93
2022-08-03T05:12:28.348Z,6.50
2022-08-03T05:14:38.147Z,6.37
2022-08-03T05:16:42.268Z,6.20
2022-08-03T05:18:47.605Z,6.00
2022-08-03T05:20:51.662Z,5.40
2022-08-03T05:22:55.456Z,5.90
2022-08-03T05:25:00.728Z,5.53
2022-08-03T05:27:05.363Z,5.80
2022-08-03T05:29:09.038Z,5.87
2022-08-03T05:31:13.525Z,5.87
2022-08-03T05:33:36.076Z,7.30
2022-08-03T05:36:04.264Z,6.03
2022-08-03T05:38:34.146Z,5.33
2022-08-03T05:41:21.090Z,5.70
2022-08-03T05:43:40.699Z,5.67
2022-08-03T05:46:12.334Z,6.23
2022-08-03T05:48:36.909Z,5.40
2022-08-03T05:51:00.974Z,5.13
2022-08-03T05:53:23.264Z,5.50
2022-08-03T05:55:45.822Z,5.00
2022-08-03T05:58:08.134Z,4.90
2022-08-03T06:00:33.927Z,5.70
2022-08-03T06:02:57.314Z,5.50
2022-08-03T06:05:20.080Z,4.87
2022-08-03T06:07:44.415Z,5.83
2022-08-03T06:10:36.216Z,4.73
2022-08-03T06:12:14.203Z,5.63
2022-08-03T06:14:18.132Z,4.97
2022-08-03T06:16:22.051Z,5.50
2022-08-03T06:18:25.828Z,5.23
2022-08-03T06:20:30.662Z,4.57
2022-08-03T06:22:34.391Z,4.70
2022-08-03T06:24:39.457Z,5.67
2022-08-03T06:26:57.205Z,4.40
2022-08-03T06:29:00.829Z,4.20
2022-08-03T06:31:07.593Z,4.30
2022-08-03T06:33:14.277Z,4.17
2022-08-03T06:35:18.103Z,4.17
2022-08-03T06:37:22.238Z,4.07
2022-08-03T06:39:26.345Z,3.47
2022-08-03T06:41:31.790Z,4.10
2022-08-03T06:44:03.014Z,3.60
2022-08-03T06:46:06.845Z,3.80
2022-08-03T06:48:11.618Z,3.47
2022-08-03T06:50:16.754Z,3.50
2022-08-03T06:52:37.576Z,2.77
2022-08-03T06:54:43.157Z,3.50
2022-08-03T06:56:48.674Z,2.83
2022-08-03T06:58:52.539Z,2.93
2022-08-03T07:00:56.564Z,2.53
2022-08-03T07:03:00.882Z,2.63
2022-08-03T07:05:04.974Z,1.90
2022-08-03T07:07:08.637Z,2.97
2022-08-03T07:09:12.910Z,2.47
2022-08-03T07:11:16.896Z,2.17
2022-08-03T07:13:22.138Z,2.07
2022-08-03T07:15:55.815Z,2.40
2022-08-03T07:18:08.586Z,1.63
2022-08-03T07:20:32.715Z,2.17
2022-08-03T07:22:55.251Z,2.07
2022-08-03T07:25:17.456Z,2.50
2022-08-03T07:27:40.416Z,1.40
2022-08-03T07:30:04.692Z,1.90
2022-08-03T07:32:26.822Z,2.23
2022-08-03T07:34:49.331Z,1.80
2022-08-03T07:37:11.915Z,1.83
2022-08-03T07:39:34.453Z,2.00
2022-08-03T07:41:56.842Z,1.90
2022-08-03T07:44:19.696Z,1.83
2022-08-03T07:46:43.647Z,2.07
2022-08-03T07:49:06.563Z,2.17
2022-08-03T07:51:29.610Z,2.60
2022-08-03T07:53:33.553Z,1.90
2022-08-03T07:55:42.681Z,2.30
2022-08-03T07:57:46.380Z,2.10
2022-08-03T08:00:01.234Z,1.83
2022-08-03T08:02:07.955Z,1.97
2022-08-03T08:04:11.633Z,2.10
2022-08-03T08:06:15.424Z,2.20
2022-08-03T08:08:19.354Z,2.10
2022-08-03T08:10:23.335Z,2.20
2022-08-03T08:12:27.063Z,2.20
2022-08-03T08:14:31.184Z,2.03
2022-08-03T08:16:35.113Z,2.17
2022-08-03T08:18:40.556Z,1.93
2022-08-03T08:20:44.504Z,1.60
2022-08-03T08:22:48.894Z,1.80
2022-08-03T08:24:53.888Z,2.20
2022-08-03T08:26:59.285Z,2.50
2022-08-03T08:29:03.119Z,1.83
2022-08-03T08:31:06.934Z,2.20
2022-08-03T08:33:22.592Z,1.63
2022-08-03T08:35:28.977Z,2.00
2022-08-03T08:37:32.976Z,2.00
2022-08-03T08:39:36.763Z,2.50
2022-08-03T08:41:40.673Z,1.70
2022-08-03T08:43:50.677Z,2.13
2022-08-03T08:45:56.609Z,2.63
2022-08-03T08:48:05.415Z,2.20
2022-08-03T08:50:27.075Z,2.27
2022-08-03T08:52:34.107Z,2.40
2022-08-03T08:54:38.938Z,1.90
2022-08-03T08:56:43.400Z,1.50
2022-08-03T08:58:49.861Z,1.73
2022-08-03T09:00:53.691Z,1.50
2022-08-03T09:03:29.433Z,1.10
2022-08-03T09:05:56.062Z,1.27
2022-08-03T09:08:20.385Z,1.40
2022-08-03T09:10:42.775Z,1.60
2022-08-03T09:13:04.990Z,1.80
2022-08-03T09:15:28.695Z,1.57
2022-08-03T09:17:51.671Z,1.30
2022-08-03T09:20:14.432Z,1.03
2022-08-03T09:22:36.587Z,1.17
2022-08-03T09:25:23.371Z,1.10
2022-08-03T09:27:47.125Z,1.50
2022-08-03T09:30:32.193Z,1.60
2022-08-03T09:33:01.997Z,1.20
2022-08-03T09:35:58.149Z,1.10
2022-08-03T09:38:14.030Z,1.10
2022-08-03T09:40:36.446Z,1.03
2022-08-03T09:42:57.878Z,1.20
2022-08-03T09:45:02.077Z,1.37
2022-08-03T09:47:07.145Z,0.93
2022-08-03T09:49:13.262Z,1.10
2022-08-03T09:52:28.800Z,1.10
2022-08-03T09:53:58.808Z,1.63
2022-08-03T09:56:36.351Z,1.20
2022-08-03T09:58:31.180Z,0.83
2022-08-03T10:00:35.237Z,1.07
2022-08-03T10:02:39.001Z,1.13
2022-08-03T10:04:51.030Z,0.77
2022-08-03T10:07:04.996Z,0.70
2022-08-03T10:09:10.084Z,1.17
2022-08-03T10:11:31.462Z,1.03
2022-08-03T10:13:35.795Z,1.10
2022-08-03T10:16:22.505Z,0.83
2022-08-03T10:18:05.147Z,1.03
2022-08-03T10:20:09.736Z,1.27
2022-08-03T10:22:15.252Z,1.37
2022-08-03T10:24:22.538Z,1.20
2022-08-03T10:26:29.656Z,0.93
2022-08-03T10:28:40.236Z,1.10
2022-08-03T10:30:50.001Z,0.70
2022-08-03T10:32:58.268Z,0.87
2022-08-03T10:35:20.137Z,0.70
2022-08-03T10:37:27.975Z,1.07
2022-08-03T10:39:32.545Z,0.60
2022-08-03T10:41:40.572Z,0.90
2022-08-03T10:43:46.074Z,0.70
2022-08-03T10:45:50.038Z,0.80
2022-08-03T10:48:12.639Z,1.20
2022-08-03T10:50:35.462Z,0.70
2022-08-03T10:52:58.037Z,0.90
2022-08-03T10:55:51.678Z,0.80
2022-08-03T10:58:15.432Z,0.90
2022-08-03T11:00:53.394Z,0.90
2022-08-03T11:03:15.914Z,0.97
2022-08-03T11:05:40.004Z,0.70
2022-08-03T11:08:22.847Z,1.00
2022-08-03T11:10:45.772Z,1.10
2022-08-03T11:13:09.588Z,0.70
2022-08-03T11:15:36.547Z,1.00
2022-08-03T11:18:11.274Z,1.03
2022-08-03T11:20:45.999Z,0.87
2022-08-03T11:23:06.842Z,0.70
2022-08-03T11:25:34.832Z,1.13
2022-08-03T11:27:35.917Z,0.70
2022-08-03T11:29:39.721Z,0.87
2022-08-03T11:31:50.649Z,1.00
2022-08-03T11:34:05.693Z,0.83
2022-08-03T11:36:09.531Z,0.80
2022-08-03T11:38:14.479Z,1.07
2022-08-03T11:40:33.357Z,1.20
2022-08-03T11:42:47.530Z,0.83
2022-08-03T11:44:53.116Z,0.83
2022-08-03T11:46:58.625Z,1.17
2022-08-03T11:49:09.852Z,0.90
2022-08-03T11:51:22.218Z,1.20
2022-08-03T11:53:26.141Z,0.97
2022-08-03T11:55:32.646Z,1.00
2022-08-03T11:59:00.899Z,1.03
2022-08-03T12:00:01.806Z,1.10
2022-08-03T12:02:10.262Z,1.00
2022-08-03T12:04:16.407Z,0.93
2022-08-03T12:06:21.321Z,1.00
2022-08-03T12:08:32.470Z,0.83
2022-08-03T12:10:37.566Z,1.40
2022-08-03T12:12:46.440Z,1.17
2022-08-03T12:14:52.428Z,1.00
2022-08-03T12:16:56.461Z,1.40
2022-08-03T12:19:02.308Z,1.33
2022-08-03T12:21:07.746Z,1.80
2022-08-03T12:23:12.022Z,1.10
2022-08-03T12:25:39.347Z,1.10
2022-08-03T12:27:43.798Z,1.20
2022-08-03T12:29:58.686Z,1.03
2022-08-03T12:32:02.839Z,1.40
2022-08-03T12:34:30.912Z,1.20
2022-08-03T12:36:56.083Z,1.20
2022-08-03T12:39:18.277Z,1.20
2022-08-03T12:41:41.209Z,1.30
2022-08-03T12:44:04.635Z,1.20
2022-08-03T12:46:33.714Z,1.37
2022-08-03T12:49:03.982Z,1.70
2022-08-03T12:51:28.470Z,1.20
2022-08-03T12:53:54.939Z,1.23
2022-08-03T12:56:18.199Z,1.50
2022-08-03T12:58:41.055Z,1.20
2022-08-03T13:01:04.811Z,1.60
2022-08-03T13:03:39.287Z,1.20
2022-08-03T13:06:05.090Z,1.33
2022-08-03T13:08:19.525Z,1.03
2022-08-03T13:10:30.752Z,1.13
2022-08-03T13:12:36.325Z,1.60
2022-08-03T13:14:40.675Z,1.70
2022-08-03T13:16:44.373Z,1.40
2022-08-03T13:18:48.218Z,1.50
2022-08-03T13:20:51.960Z,1.13
2022-08-03T13:23:00.610Z,1.30
2022-08-03T13:25:07.053Z,1.30
2022-08-03T13:28:02.454Z,1.40
2022-08-03T13:29:36.343Z,1.77
2022-08-03T13:31:50.330Z,1.43
2022-08-03T13:33:54.979Z,1.53
2022-08-03T13:35:59.340Z,1.60
2022-08-03T13:38:03.132Z,1.30
2022-08-03T13:40:11.580Z,1.50
2022-08-03T13:42:15.444Z,1.37
2022-08-03T13:44:29.335Z,1.07
2022-08-03T13:46:34.688Z,1.40
2022-08-03T13:48:38.747Z,1.17
2022-08-03T13:50:43.289Z,1.00
2022-08-03T13:52:48.062Z,1.70
2022-08-03T13:54:51.976Z,1.20
2022-08-03T13:58:01.103Z,1.47
2022-08-03T13:59:21.465Z,1.70
2022-08-03T14:01:53.631Z,1.10
2022-08-03T14:03:52.722Z,1.93
2022-08-03T14:05:58.383Z,1.27
2022-08-03T14:08:04.286Z,1.60
2022-08-03T14:10:09.252Z,1.97
2022-08-03T14:12:15.011Z,1.77
2022-08-03T14:14:18.830Z,1.33
2022-08-03T14:16:22.553Z,1.23
2022-08-03T14:18:44.928Z,1.37
2022-08-03T14:21:07.976Z,1.20
2022-08-03T14:23:30.498Z,1.50
2022-08-03T14:25:53.286Z,1.67
2022-08-03T14:28:16.867Z,1.43
2022-08-03T14:30:39.161Z,1.40
2022-08-03T14:33:01.751Z,1.50
2022-08-03T14:35:23.988Z,1.40
2022-08-03T14:37:46.472Z,1.13
2022-08-03T14:40:09.714Z,1.30
2022-08-03T14:42:32.060Z,1.40
2022-08-03T14:45:00.704Z,1.50
2022-08-03T14:47:26.132Z,1.57
2022-08-03T14:50:31.147Z,1.43
2022-08-03T14:52:31.290Z,1.30
2022-08-03T14:54:35.403Z,1.40
2022-08-03T14:56:39.379Z,1.50
2022-08-03T14:58:43.698Z,1.50
2022-08-03T15:00:49.121Z,1.67
2022-08-03T15:02:53.145Z,1.37
2022-08-03T15:04:57.344Z,2.10
2022-08-03T15:07:01.501Z,1.53
2022-08-03T15:11:28.789Z,1.63
2022-08-03T15:13:32.386Z,1.67
2022-08-03T15:15:36.429Z,1.37
2022-08-03T15:17:59.651Z,1.10
2022-08-03T15:20:26.504Z,1.97
2022-08-03T15:22:34.558Z,1.37
2022-08-03T15:24:39.157Z,1.30
2022-08-03T15:26:42.822Z,1.70
2022-08-03T15:28:46.391Z,1.60
2022-08-03T15:30:50.900Z,1.30
2022-08-03T15:32:56.346Z,1.50
2022-08-03T15:35:00.774Z,1.53
2022-08-03T15:37:23.062Z,1.70
2022-08-03T15:39:26.717Z,1.70
2022-08-03T15:41:30.782Z,1.53
2022-08-03T15:43:34.611Z,1.70
2022-08-03T15:45:43.149Z,1.70
2022-08-03T15:47:47.092Z,1.77
2022-08-03T15:49:53.585Z,2.30
2022-08-03T15:51:57.687Z,1.50
2022-08-03T15:54:01.803Z,1.37
2022-08-03T15:56:12.118Z,1.63
2022-08-03T15:59:03.875Z,2.00
2022-08-03T16:00:43.334Z,1.57
2022-08-03T16:03:05.627Z,1.73
2022-08-03T16:05:29.448Z,1.60
2022-08-03T16:08:03.179Z,1.30
2022-08-03T16:10:30.633Z,1.73
2022-08-03T16:12:53.294Z,1.63
2022-08-03T16:15:16.182Z,1.40
2022-08-03T16:17:38.952Z,1.87
2022-08-03T16:20:00.924Z,2.07
2022-08-03T16:22:28.402Z,1.63
2022-08-03T16:24:51.234Z,1.50
2022-08-03T16:27:36.762Z,1.53
2022-08-03T16:29:55.990Z,1.70
2022-08-03T16:32:19.398Z,1.53
2022-08-03T16:34:42.618Z,1.77
2022-08-03T16:37:35.254Z,1.50
2022-08-03T16:39:31.142Z,1.50
2022-08-03T16:41:53.854Z,1.70
2022-08-03T16:44:06.657Z,1.53
2022-08-03T16:46:14.060Z,1.70
2022-08-03T16:48:18.567Z,1.40
2022-08-03T16:50:22.842Z,1.60
2022-08-03T16:52:27.225Z,1.80
2022-08-03T16:54:33.239Z,1.40
2022-08-03T16:56:39.163Z,1.80
2022-08-03T16:58:45.368Z,1.70
2022-08-03T17:00:51.013Z,1.70
2022-08-03T17:02:56.105Z,1.83
2022-08-03T17:05:03.169Z,1.60
2022-08-03T17:07:20.521Z,2.57
2022-08-03T17:09:26.414Z,1.63
2022-08-03T17:11:47.269Z,1.70
2022-08-03T17:13:51.743Z,2.03
2022-08-03T17:16:01.375Z,1.90
2022-08-03T17:18:08.189Z,2.10
2022-08-03T17:20:15.098Z,1.33
2022-08-03T17:29:02.382Z,1.60
2022-08-03T17:31:23.240Z,1.80
2022-08-03T17:34:04.471Z,1.90
2022-08-03T17:36:12.572Z,1.37
2022-08-03T17:38:31.918Z,1.57
2022-08-03T17:40:39.259Z,1.50
2022-08-03T17:45:15.532Z,2.00
2022-08-03T17:47:21.459Z,1.93
2022-08-03T17:49:45.563Z,2.00
2022-08-03T17:52:17.368Z,1.93
2022-08-03T17:55:56.941Z,2.90
2022-08-03T17:58:02.036Z,2.87
2022-08-03T18:00:44.065Z,3.43
2022-08-03T18:03:18.367Z,3.50
2022-08-03T18:06:11.275Z,3.90
2022-08-03T18:40:48.556Z,3.00
2022-08-03T18:44:37.566Z,2.59
2022-08-03T18:47:06.995Z,3.10
2022-08-03T18:49:37.801Z,3.33
2022-08-03T18:51:43.313Z,3.70
2022-08-03T18:54:03.365Z,3.13
2022-08-03T18:56:11.287Z,2.50
2022-08-03T18:58:18.371Z,2.90
2022-08-03T19:00:24.908Z,2.50
2022-08-03T19:02:51.195Z,2.80
2022-08-03T19:04:55.957Z,2.80
2022-08-03T19:07:04.905Z,3.20
2022-08-03T19:09:18.368Z,3.13
2022-08-03T19:11:28.019Z,2.70
2022-08-03T19:16:04.552Z,2.40
2022-08-03T19:18:13.663Z,3.23
2022-08-03T19:20:25.117Z,2.80
2022-08-03T19:22:29.243Z,2.60
2022-08-03T19:24:37.025Z,3.30
2022-08-03T19:26:42.520Z,3.00
2022-08-03T19:28:53.930Z,2.87
2022-08-03T19:31:06.496Z,2.93
2022-08-03T19:33:15.352Z,3.23
2022-08-03T19:35:49.761Z,2.67
2022-08-03T19:37:45.918Z,2.80
2022-08-03T19:39:56.577Z,3.03
2022-08-03T19:42:23.105Z,3.07
2022-08-03T19:44:28.602Z,2.50
2022-08-03T19:46:37.340Z,2.53
2022-08-03T19:48:46.512Z,3.30
2022-08-03T19:50:51.066Z,2.80
2022-08-03T19:52:57.242Z,2.60
2022-08-03T19:55:01.780Z,3.13
2022-08-03T19:57:08.927Z,2.90
2022-08-03T19:59:21.311Z,2.43
2022-08-03T20:01:25.536Z,2.77
2022-08-03T20:03:42.791Z,3.17
2022-08-03T20:05:52.189Z,2.60
2022-08-03T20:08:03.439Z,2.80
2022-08-03T20:10:09.321Z,2.53
2022-08-03T20:12:13.672Z,2.70
2022-08-03T20:14:26.156Z,2.60
2022-08-03T20:16:30.860Z,3.27
2022-08-03T20:18:39.433Z,3.37
2022-08-03T20:20:43.755Z,3.00
2022-08-03T20:22:52.855Z,2.80
2022-08-03T20:24:57.845Z,3.10
2022-08-03T20:27:05.171Z,3.73
2022-08-03T20:29:14.125Z,3.43
2022-08-03T20:31:18.283Z,3.20
2022-08-03T20:33:27.911Z,2.87
2022-08-03T20:35:49.151Z,3.37
2022-08-03T20:37:53.601Z,3.67
2022-08-03T20:39:57.502Z,3.67
2022-08-03T20:42:02.646Z,3.27
2022-08-03T20:44:07.218Z,3.10
2022-08-03T20:46:29.417Z,2.90
2022-08-03T20:48:39.713Z,2.67
2022-08-03T20:50:46.877Z,3.23
2022-08-03T20:52:59.506Z,2.60
2022-08-03T20:55:14.695Z,3.93
2022-08-03T20:57:19.912Z,3.17
2022-08-03T20:59:23.689Z,3.10
2022-08-03T21:01:36.100Z,3.10
2022-08-03T21:03:52.372Z,3.03
2022-08-03T21:06:05.460Z,3.03
2022-08-03T21:08:13.348Z,2.97
2022-08-03T21:10:19.611Z,2.93
2022-08-03T21:12:29.729Z,3.70
2022-08-03T21:13:09.235Z,3.00
2022-08-03T21:14:38.943Z,2.53
2022-08-03T21:16:46.382Z,2.97
2022-08-03T21:18:53.328Z,2.60
2022-08-03T21:20:57.769Z,3.20
2022-08-03T21:23:02.904Z,3.20
2022-08-03T21:25:10.325Z,3.00
2022-08-03T21:27:14.983Z,2.73
2022-08-03T21:29:20.136Z,3.37
2022-08-03T21:31:26.508Z,3.37
2022-08-03T21:33:30.841Z,3.03
2022-08-03T21:35:35.034Z,2.50
2022-08-03T21:37:39.867Z,2.53
2022-08-03T21:39:50.743Z,3.27
2022-08-03T21:41:56.607Z,3.37
2022-08-03T21:44:02.422Z,3.20
2022-08-03T21:46:07.944Z,2.97
2022-08-03T21:48:15.062Z,2.80
2022-08-03T21:50:19.611Z,3.57
2022-08-03T21:52:25.891Z,3.17
2022-08-03T21:54:32.174Z,3.57
2022-08-03T21:56:38.626Z,3.30
2022-08-03T21:58:46.111Z,3.30
2022-08-03T22:00:55.513Z,3.50
2022-08-03T22:03:00.353Z,3.40
2022-08-03T22:05:29.066Z,3.70
2022-08-03T22:07:45.864Z,3.07
2022-08-03T22:09:51.613Z,2.97
2022-08-03T22:11:55.653Z,3.23
2022-08-03T22:14:03.096Z,3.47
2022-08-03T22:16:07.787Z,3.70
2022-08-03T22:18:13.233Z,3.40
2022-08-03T22:20:17.424Z,3.07
2022-08-03T22:22:21.373Z,3.43
2022-08-03T22:24:29.688Z,3.80
2022-08-03T22:26:35.460Z,3.50
2022-08-03T22:28:39.798Z,3.10
2022-08-03T22:30:46.321Z,3.93
2022-08-03T22:32:51.203Z,3.67
2022-08-03T22:34:55.615Z,3.80
2022-08-03T22:37:03.814Z,3.97
2022-08-03T22:39:09.132Z,3.60
2022-08-03T22:41:13.529Z,3.70
2022-08-03T22:43:17.404Z,4.27
2022-08-03T22:46:06.094Z,3.80
2022-08-03T22:47:47.716Z,3.50
2022-08-03T22:50:31.538Z,3.90
2022-08-03T22:52:19.774Z,3.50
2022-08-03T22:54:24.173Z,4.33
2022-08-03T22:56:28.321Z,4.00
2022-08-03T22:58:32.599Z,4.33
2022-08-03T23:00:36.471Z,3.97
2022-08-03T23:02:42.116Z,3.80
2022-08-03T23:04:50.298Z,4.87
2022-08-03T23:06:57.830Z,4.20
2022-08-03T23:09:01.917Z,4.00
2022-08-03T23:11:09.077Z,4.60
2022-08-03T23:13:13.159Z,4.20
2022-08-03T23:15:17.478Z,4.70
2022-08-03T23:17:22.090Z,4.50
2022-08-03T23:19:30.189Z,4.83
2022-08-03T23:22:01.014Z,4.83
2022-08-03T23:24:04.735Z,4.43
2022-08-03T23:26:21.884Z,3.90
2022-08-03T23:28:26.290Z,5.40
2022-08-03T23:30:32.421Z,5.10
2022-08-03T23:32:37.820Z,5.20
2022-08-03T23:35:00.015Z,3.70
2022-08-03T23:37:06.286Z,4.60
2022-08-03T23:39:10.926Z,4.37
2022-08-03T23:41:15.577Z,4.50
2022-08-03T23:43:44.405Z,4.03
2022-08-03T23:45:47.041Z,4.53
2022-08-03T23:47:51.312Z,5.00
2022-08-03T23:49:55.513Z,5.30
2022-08-03T23:52:03.935Z,4.20
2022-08-03T23:54:12.162Z,5.07
2022-08-03T23:56:23.957Z,5.20
2022-08-03T23:58:39.934Z,5.00
